This is the latest recevied weather packets stored in our database for station/object K1BWE-1. If no packets are shown the sender has not sent any weather packets the latest 10 day(s).
| Time | Temp. | Humidity | Pressure | Rain* | Wind** | Luminosity | Snow |
|---|---|---|---|---|---|---|---|
| 1777723193 | 12.78° C | 41% | 1014.8 hPa | 0 mm | - | 0 W/m² | - |
| 1777721981 | 14.44° C | 38% | 1014.8 hPa | 0 mm | - | 0 W/m² | - |
| 1777721678 | 13.89° C | 38% | 1015 hPa | 0 mm | - | 0 W/m² | - |
| 1777721377 | 13.89° C | 40% | 1015 hPa | 0 mm | - | 0 W/m² | - |
| 1777721074 | 14.44° C | 39% | 1015.1 hPa | 0 mm | - | 0 W/m² | - |
| 1777720772 | 14.44° C | 37% | 1014.8 hPa | 0 mm | - | 0 W/m² | - |
| 1777720468 | 15° C | 36% | 1014.9 hPa | 0 mm | - | 0 W/m² | - |
| 1777720166 | 15.56° C | 35% | 1015.1 hPa | 0 mm | - | 0 W/m² | - |
| 1777719864 | 15.56° C | 35% | 1015 hPa | 0 mm | - | 0 W/m² | - |
| 1777719561 | 15.56° C | 35% | 1014.9 hPa | 0 mm | - | 0 W/m² | - |
| 1777719258 | 16.11° C | 35% | 1015 hPa | 0 mm | - | 0 W/m² | - |
| 1777718956 | 16.11° C | 34% | 1014.8 hPa | 0 mm | - | 0 W/m² | - |
| 1777718653 | 16.11° C | 34% | 1015 hPa | 0 mm | - | 0 W/m² | - |
| 1777718350 | 16.11° C | 34% | 1015 hPa | 0 mm | - | 0 W/m² | - |
| 1777718048 | 16.67° C | 33% | 1015 hPa | 0 mm | - | 0 W/m² | - |
| 1777717744 | 16.67° C | 33% | 1014.9 hPa | 0 mm | - | 0 W/m² | - |
| 1777717441 | 17.22° C | 33% | 1014.8 hPa | 0 mm | - | 0 W/m² | - |
| 1777717138 | 17.22° C | 32% | 1015 hPa | 0 mm | - | 0 W/m² | - |
| 1777716836 | 17.78° C | 32% | 1014.8 hPa | 0 mm | - | 0 W/m² | - |
| 1777716534 | 17.78° C | 31% | 1014.9 hPa | 0 mm | - | 0 W/m² | - |
| 1777716234 | 17.78° C | 31% | 1015.1 hPa | 0 mm | - | 0 W/m² | - |
| 1777715930 | 17.78° C | 31% | 1015.2 hPa | 0 mm | - | 0 W/m² | - |
| 1777715628 | 17.78° C | 31% | 1015 hPa | 0 mm | - | 0 W/m² | - |
| 1777715326 | 17.22° C | 31% | 1015.1 hPa | 0 mm | - | 0 W/m² | - |
| 1777715023 | 16.67° C | 32% | 1015.3 hPa | 0 mm | - | 0 W/m² | - |
* Rain latest hour (hover to see other rain measurements)
** Current wind speed in m/s (hover to see current wind gust speed)